sensor_id;sensor_type;location;lat;lon;timestamp;pressure;altitude;pressure_sealevel;temperature;humidity
56604;BME280;42486;47.478;19.036;2024-01-30T00:00:54;102570.41;;;-1.69;100.00
56604;BME280;42486;47.478;19.036;2024-01-30T00:03:57;102567.06;;;-1.63;100.00
56604;BME280;42486;47.478;19.036;2024-01-30T00:07:02;102573.91;;;-1.64;100.00
56604;BME280;42486;47.478;19.036;2024-01-30T00:10:06;102579.00;;;-1.65;100.00
56604;BME280;42486;47.478;19.036;2024-01-30T00:13:10;102573.00;;;-1.67;100.00
56604;BME280;42486;47.478;19.036;2024-01-30T00:16:24;102575.53;;;-1.69;100.00
56604;BME280;42486;47.478;19.036;2024-01-30T00:19:29;102568.63;;;-1.73;100.00
56604;BME280;42486;47.478;19.036;2024-01-30T00:22:33;102567.81;;;-1.70;100.00
56604;BME280;42486;47.478;19.036;2024-01-30T00:25:36;102576.34;;;-1.71;100.00
56604;BME280;42486;47.478;19.036;2024-01-30T00:28:41;102579.75;;;-1.75;100.00
56604;BME280;42486;47.478;19.036;2024-01-30T00:31:45;102580.59;;;-1.75;100.00
56604;BME280;42486;47.478;19.036;2024-01-30T00:34:49;102579.75;;;-1.75;100.00
56604;BME280;42486;47.478;19.036;2024-01-30T00:37:53;102584.09;;;-1.70;100.00
56604;BME280;42486;47.478;19.036;2024-01-30T00:40:58;102585.72;;;-1.75;100.00
56604;BME280;42486;47.478;19.036;2024-01-30T00:44:02;102591.66;;;-1.76;100.00
56604;BME280;42486;47.478;19.036;2024-01-30T00:47:06;102595.03;;;-1.79;100.00
56604;BME280;42486;47.478;19.036;2024-01-30T00:50:15;102586.56;;;-1.74;100.00
56604;BME280;42486;47.478;19.036;2024-01-30T00:53:20;102587.44;;;-1.75;100.00
56604;BME280;42486;47.478;19.036;2024-01-30T00:56:24;102581.38;;;-1.81;100.00
56604;BME280;42486;47.478;19.036;2024-01-30T00:59:31;102579.56;;;-1.88;100.00
56604;BME280;42486;47.478;19.036;2024-01-30T01:02:35;102571.84;;;-1.89;100.00
56604;BME280;42486;47.478;19.036;2024-01-30T01:05:41;102583.72;;;-1.94;100.00
56604;BME280;42486;47.478;19.036;2024-01-30T01:08:44;102584.53;;;-1.98;100.00
56604;BME280;42486;47.478;19.036;2024-01-30T01:11:48;102575.13;;;-1.98;100.00
56604;BME280;42486;47.478;19.036;2024-01-30T01:14:51;102576.00;;;-1.97;100.00
56604;BME280;42486;47.478;19.036;2024-01-30T01:17:56;102569.97;;;-2.01;100.00
56604;BME280;42486;47.478;19.036;2024-01-30T01:21:04;102573.34;;;-2.04;100.00
56604;BME280;42486;47.478;19.036;2024-01-30T01:24:09;102574.16;;;-2.06;100.00
56604;BME280;42486;47.478;19.036;2024-01-30T01:27:21;102569.88;;;-2.09;100.00
56604;BME280;42486;47.478;19.036;2024-01-30T01:30:24;102571.53;;;-2.12;100.00
56604;BME280;42486;47.478;19.036;2024-01-30T01:33:28;102572.37;;;-2.12;100.00
56604;BME280;42486;47.478;19.036;2024-01-30T01:36:32;102564.63;;;-2.16;100.00
56604;BME280;42486;47.478;19.036;2024-01-30T01:39:36;102557.75;;;-2.19;100.00
56604;BME280;42486;47.478;19.036;2024-01-30T01:42:41;102561.13;;;-2.22;100.00
56604;BME280;42486;47.478;19.036;2024-01-30T01:45:45;102561.13;;;-2.23;100.00
56604;BME280;42486;47.478;19.036;2024-01-30T01:48:48;102562.97;;;-2.14;100.00
56604;BME280;42486;47.478;19.036;2024-01-30T01:51:53;102558.59;;;-2.20;100.00
56604;BME280;42486;47.478;19.036;2024-01-30T01:54:59;102558.81;;;-2.06;100.00
56604;BME280;42486;47.478;19.036;2024-01-30T01:58:04;102559.53;;;-2.15;100.00
56604;BME280;42486;47.478;19.036;2024-01-30T02:01:07;102554.31;;;-2.23;100.00
56604;BME280;42486;47.478;19.036;2024-01-30T02:04:11;102551.66;;;-2.27;100.00
56604;BME280;42486;47.478;19.036;2024-01-30T02:07:15;102554.97;;;-2.34;100.00
56604;BME280;42486;47.478;19.036;2024-01-30T02:10:19;102560.97;;;-2.34;100.00
56604;BME280;42486;47.478;19.036;2024-01-30T02:13:23;102555.00;;;-2.33;100.00
56604;BME280;42486;47.478;19.036;2024-01-30T02:16:27;102549.84;;;-2.36;100.00
56604;BME280;42486;47.478;19.036;2024-01-30T02:19:31;102550.66;;;-2.37;100.00
56604;BME280;42486;47.478;19.036;2024-01-30T02:22:34;102551.47;;;-2.39;100.00
56604;BME280;42486;47.478;19.036;2024-01-30T02:25:40;102559.16;;;-2.41;100.00
56604;BME280;42486;47.478;19.036;2024-01-30T02:28:50;102549.75;;;-2.40;100.00
56604;BME280;42486;47.478;19.036;2024-01-30T02:31:54;102548.03;;;-2.41;100.00
56604;BME280;42486;47.478;19.036;2024-01-30T02:34:57;102550.56;;;-2.43;100.00
56604;BME280;42486;47.478;19.036;2024-01-30T02:38:02;102548.00;;;-2.43;100.00
56604;BME280;42486;47.478;19.036;2024-01-30T02:41:09;102543.88;;;-2.35;100.00
56604;BME280;42486;47.478;19.036;2024-01-30T02:44:13;102548.09;;;-2.38;100.00
56604;BME280;42486;47.478;19.036;2024-01-30T02:47:19;102553.13;;;-2.45;100.00
56604;BME280;42486;47.478;19.036;2024-01-30T02:50:22;102559.06;;;-2.47;100.00
56604;BME280;42486;47.478;19.036;2024-01-30T02:53:26;102553.84;;;-2.50;100.00
56604;BME280;42486;47.478;19.036;2024-01-30T02:56:33;102547.00;;;-2.53;100.00
56604;BME280;42486;47.478;19.036;2024-01-30T02:59:38;102549.50;;;-2.56;100.00
56604;BME280;42486;47.478;19.036;2024-01-30T03:02:42;102554.63;;;-2.57;100.00
56604;BME280;42486;47.478;19.036;2024-01-30T03:05:45;102546.91;;;-2.59;100.00
56604;BME280;42486;47.478;19.036;2024-01-30T03:08:49;102544.38;;;-2.56;100.00
56604;BME280;42486;47.478;19.036;2024-01-30T03:11:51;102540.12;;;-2.57;100.00
56604;BME280;42486;47.478;19.036;2024-01-30T03:14:56;102545.28;;;-2.54;100.00
56604;BME280;42486;47.478;19.036;2024-01-30T03:18:00;102546.25;;;-2.46;100.00
56604;BME280;42486;47.478;19.036;2024-01-30T03:21:05;102549.63;;;-2.48;100.00
56604;BME280;42486;47.478;19.036;2024-01-30T03:24:09;102557.22;;;-2.53;100.00
56604;BME280;42486;47.478;19.036;2024-01-30T03:27:12;102547.97;;;-2.46;100.00
56604;BME280;42486;47.478;19.036;2024-01-30T03:30:16;102549.56;;;-2.53;100.00
56604;BME280;42486;47.478;19.036;2024-01-30T03:33:19;102558.87;;;-2.58;100.00
56604;BME280;42486;47.478;19.036;2024-01-30T03:36:23;102559.69;;;-2.60;100.00
56604;BME280;42486;47.478;19.036;2024-01-30T03:39:27;102547.63;;;-2.66;100.00
56604;BME280;42486;47.478;19.036;2024-01-30T03:42:32;102543.38;;;-2.67;100.00
56604;BME280;42486;47.478;19.036;2024-01-30T03:45:36;102545.88;;;-2.69;100.00
56604;BME280;42486;47.478;19.036;2024-01-30T03:48:45;102545.88;;;-2.70;100.00
56604;BME280;42486;47.478;19.036;2024-01-30T03:51:48;102535.66;;;-2.70;100.00
56604;BME280;42486;47.478;19.036;2024-01-30T03:54:52;102534.78;;;-2.71;100.00
56604;BME280;42486;47.478;19.036;2024-01-30T03:57:56;102535.66;;;-2.70;100.00
56604;BME280;42486;47.478;19.036;2024-01-30T04:01:06;102532.38;;;-2.61;100.00
56604;BME280;42486;47.478;19.036;2024-01-30T04:04:10;102536.78;;;-2.51;100.00
56604;BME280;42486;47.478;19.036;2024-01-30T04:07:15;102535.94;;;-2.50;100.00
56604;BME280;42486;47.478;19.036;2024-01-30T04:10:25;102538.47;;;-2.53;100.00
56604;BME280;42486;47.478;19.036;2024-01-30T04:13:33;102532.41;;;-2.60;100.00
56604;BME280;42486;47.478;19.036;2024-01-30T04:16:37;102531.41;;;-2.68;100.00
56604;BME280;42486;47.478;19.036;2024-01-30T04:19:41;102522.03;;;-2.68;100.00
56604;BME280;42486;47.478;19.036;2024-01-30T04:22:44;102523.75;;;-2.67;100.00
56604;BME280;42486;47.478;19.036;2024-01-30T04:25:48;102520.28;;;-2.70;100.00
56604;BME280;42486;47.478;19.036;2024-01-30T04:28:52;102517.66;;;-2.75;100.00
56604;BME280;42486;47.478;19.036;2024-01-30T04:32:00;102521.87;;;-2.77;100.00
56604;BME280;42486;47.478;19.036;2024-01-30T04:35:07;102520.94;;;-2.82;100.00
56604;BME280;42486;47.478;19.036;2024-01-30T04:38:13;102526.88;;;-2.84;100.00
56604;BME280;42486;47.478;19.036;2024-01-30T04:41:17;102527.69;;;-2.87;100.00
56604;BME280;42486;47.478;19.036;2024-01-30T04:44:20;102521.69;;;-2.88;100.00
56604;BME280;42486;47.478;19.036;2024-01-30T04:47:23;102517.47;;;-2.87;100.00
56604;BME280;42486;47.478;19.036;2024-01-30T04:50:27;102531.25;;;-2.79;100.00
56604;BME280;42486;47.478;19.036;2024-01-30T04:53:35;102536.59;;;-2.65;100.00
56604;BME280;42486;47.478;19.036;2024-01-30T04:56:39;102531.34;;;-2.73;100.00
56604;BME280;42486;47.478;19.036;2024-01-30T04:59:45;102531.47;;;-2.63;100.00
56604;BME280;42486;47.478;19.036;2024-01-30T05:02:57;102530.50;;;-2.72;100.00
56604;BME280;42486;47.478;19.036;2024-01-30T05:06:00;102544.94;;;-2.75;100.00
56604;BME280;42486;47.478;19.036;2024-01-30T05:09:07;102541.44;;;-2.80;100.00
56604;BME280;42486;47.478;19.036;2024-01-30T05:12:11;102545.66;;;-2.82;100.00
56604;BME280;42486;47.478;19.036;2024-01-30T05:15:14;102548.28;;;-2.78;100.00
56604;BME280;42486;47.478;19.036;2024-01-30T05:18:17;102555.06;;;-2.80;100.00
56604;BME280;42486;47.478;19.036;2024-01-30T05:21:20;102555.87;;;-2.82;100.00
56604;BME280;42486;47.478;19.036;2024-01-30T05:24:23;102556.69;;;-2.85;100.00
56604;BME280;42486;47.478;19.036;2024-01-30T05:27:29;102557.50;;;-2.89;100.00
56604;BME280;42486;47.478;19.036;2024-01-30T05:30:35;102563.41;;;-2.90;100.00
56604;BME280;42486;47.478;19.036;2024-01-30T05:33:40;102569.41;;;-2.90;100.00
56604;BME280;42486;47.478;19.036;2024-01-30T05:36:44;102564.41;;;-2.83;100.00
56604;BME280;42486;47.478;19.036;2024-01-30T05:39:49;102567.88;;;-2.80;100.00
56604;BME280;42486;47.478;19.036;2024-01-30T05:42:52;102572.09;;;-2.82;100.00
56604;BME280;42486;47.478;19.036;2024-01-30T05:46:06;102572.13;;;-2.80;100.00
56604;BME280;42486;47.478;19.036;2024-01-30T05:49:11;102574.78;;;-2.74;100.00
56604;BME280;42486;47.478;19.036;2024-01-30T05:52:15;102571.28;;;-2.81;100.00
56604;BME280;42486;47.478;19.036;2024-01-30T05:55:19;102563.56;;;-2.84;100.00
56604;BME280;42486;47.478;19.036;2024-01-30T05:58:23;102567.91;;;-2.78;100.00
56604;BME280;42486;47.478;19.036;2024-01-30T06:01:27;102559.34;;;-2.80;100.00
56604;BME280;42486;47.478;19.036;2024-01-30T06:04:34;102565.25;;;-2.83;100.00
56604;BME280;42486;47.478;19.036;2024-01-30T06:07:38;102568.66;;;-2.84;100.00
56604;BME280;42486;47.478;19.036;2024-01-30T06:10:41;102570.66;;;-2.68;100.00
56604;BME280;42486;47.478;19.036;2024-01-30T06:13:45;102573.25;;;-2.64;100.00
56604;BME280;42486;47.478;19.036;2024-01-30T06:16:49;102577.47;;;-2.67;100.00
56604;BME280;42486;47.478;19.036;2024-01-30T06:19:53;102577.69;;;-2.53;100.00
56604;BME280;42486;47.478;19.036;2024-01-30T06:23:06;102574.28;;;-2.53;100.00
56604;BME280;42486;47.478;19.036;2024-01-30T06:26:09;102569.13;;;-2.58;100.00
56604;BME280;42486;47.478;19.036;2024-01-30T06:29:12;102573.56;;;-2.46;100.00
56604;BME280;42486;47.478;19.036;2024-01-30T06:32:21;102577.81;;;-2.45;100.00
56604;BME280;42486;47.478;19.036;2024-01-30T06:35:24;102577.88;;;-2.44;100.00
56604;BME280;42486;47.478;19.036;2024-01-30T06:38:28;102591.56;;;-2.41;100.00
56604;BME280;42486;47.478;19.036;2024-01-30T06:41:32;102590.78;;;-2.36;100.00
56604;BME280;42486;47.478;19.036;2024-01-30T06:44:36;102584.91;;;-2.30;100.00
56604;BME280;42486;47.478;19.036;2024-01-30T06:47:40;102586.66;;;-2.28;100.00
56604;BME280;42486;47.478;19.036;2024-01-30T06:50:43;102587.00;;;-2.03;100.00
56604;BME280;42486;47.478;19.036;2024-01-30T06:53:46;102579.53;;;-1.91;100.00
56604;BME280;42486;47.478;19.036;2024-01-30T06:56:51;102587.22;;;-1.89;100.00
56604;BME280;42486;47.478;19.036;2024-01-30T06:59:56;102587.25;;;-1.88;100.00
56604;BME280;42486;47.478;19.036;2024-01-30T07:03:01;102589.00;;;-1.84;100.00
56604;BME280;42486;47.478;19.036;2024-01-30T07:06:05;102597.69;;;-1.75;100.00
56604;BME280;42486;47.478;19.036;2024-01-30T07:09:09;102583.28;;;-1.63;100.00
56604;BME280;42486;47.478;19.036;2024-01-30T07:12:12;102592.78;;;-1.56;100.00
56604;BME280;42486;47.478;19.036;2024-01-30T07:15:16;102590.34;;;-1.46;100.00
56604;BME280;42486;47.478;19.036;2024-01-30T07:18:22;102596.47;;;-1.35;100.00
56604;BME280;42486;47.478;19.036;2024-01-30T07:21:24;102592.47;;;-1.12;100.00
56604;BME280;42486;47.478;19.036;2024-01-30T07:24:31;102600.22;;;-1.04;100.00
56604;BME280;42486;47.478;19.036;2024-01-30T07:27:33;102600.34;;;-0.95;100.00
56604;BME280;42486;47.478;19.036;2024-01-30T07:30:37;102602.97;;;-0.89;100.00
56604;BME280;42486;47.478;19.036;2024-01-30T07:33:43;102602.28;;;-0.74;100.00
56604;BME280;42486;47.478;19.036;2024-01-30T07:36:46;102598.06;;;-0.64;100.00
56604;BME280;42486;47.478;19.036;2024-01-30T07:39:50;102598.09;;;-0.62;100.00
56604;BME280;42486;47.478;19.036;2024-01-30T07:42:53;102593.03;;;-0.55;100.00
56604;BME280;42486;47.478;19.036;2024-01-30T07:45:57;102594.12;;;-0.22;100.00
56604;BME280;42486;47.478;19.036;2024-01-30T07:49:01;102591.78;;;0.06;100.00
56604;BME280;42486;47.478;19.036;2024-01-30T07:52:05;102596.19;;;0.31;100.00
56604;BME280;42486;47.478;19.036;2024-01-30T07:55:12;102592.84;;;0.48;100.00
56604;BME280;42486;47.478;19.036;2024-01-30T07:58:15;102586.94;;;0.64;100.00
56604;BME280;42486;47.478;19.036;2024-01-30T08:01:20;102592.13;;;0.78;100.00
56604;BME280;42486;47.478;19.036;2024-01-30T08:04:24;102593.00;;;0.89;100.00
56604;BME280;42486;47.478;19.036;2024-01-30T08:07:27;102590.47;;;1.07;100.00
56604;BME280;42486;47.478;19.036;2024-01-30T08:10:32;102596.47;;;1.11;100.00
56604;BME280;42486;47.478;19.036;2024-01-30T08:13:36;102599.06;;;1.22;100.00
56604;BME280;42486;47.478;19.036;2024-01-30T08:16:49;102600.81;;;1.20;100.00
56604;BME280;42486;47.478;19.036;2024-01-30T08:19:53;102609.41;;;1.56;100.00
56604;BME280;42486;47.478;19.036;2024-01-30T08:22:56;102609.41;;;1.85;100.00
56604;BME280;42486;47.478;19.036;2024-01-30T08:26:01;102605.09;;;1.90;100.00
56604;BME280;42486;47.478;19.036;2024-01-30T08:29:05;102605.94;;;1.89;100.00
56604;BME280;42486;47.478;19.036;2024-01-30T08:32:07;102608.50;;;2.07;100.00
56604;BME280;42486;47.478;19.036;2024-01-30T08:35:16;102612.75;;;2.33;100.00
56604;BME280;42486;47.478;19.036;2024-01-30T08:38:19;102613.56;;;2.53;100.00
56604;BME280;42486;47.478;19.036;2024-01-30T08:41:27;102617.84;;;2.54;100.00
56604;BME280;42486;47.478;19.036;2024-01-30T08:44:32;102623.78;;;2.73;100.00
56604;BME280;42486;47.478;19.036;2024-01-30T08:47:35;102627.19;;;2.87;100.00
56604;BME280;42486;47.478;19.036;2024-01-30T08:50:40;102626.34;;;2.81;100.00
56604;BME280;42486;47.478;19.036;2024-01-30T08:53:44;102625.56;;;2.67;100.00
56604;BME280;42486;47.478;19.036;2024-01-30T08:56:51;102625.50;;;2.73;100.00
56604;BME280;42486;47.478;19.036;2024-01-30T08:59:56;102620.31;;;2.85;100.00
56604;BME280;42486;47.478;19.036;2024-01-30T09:03:07;102615.88;;;3.08;100.00
56604;BME280;42486;47.478;19.036;2024-01-30T09:06:15;102624.16;;;3.60;100.00
56604;BME280;42486;47.478;19.036;2024-01-30T09:09:18;102619.03;;;3.50;100.00
56604;BME280;42486;47.478;19.036;2024-01-30T09:12:29;102616.72;;;3.12;100.00
56604;BME280;42486;47.478;19.036;2024-01-30T09:15:36;102617.66;;;2.97;100.00
56604;BME280;42486;47.478;19.036;2024-01-30T09:18:39;102608.25;;;2.84;100.00
56604;BME280;42486;47.478;19.036;2024-01-30T09:21:43;102608.22;;;2.93;100.00
56604;BME280;42486;47.478;19.036;2024-01-30T09:24:47;102616.63;;;3.26;100.00
56604;BME280;42486;47.478;19.036;2024-01-30T09:27:54;102607.72;;;3.64;100.00
56604;BME280;42486;47.478;19.036;2024-01-30T09:30:58;102610.31;;;3.65;100.00
56604;BME280;42486;47.478;19.036;2024-01-30T09:34:02;102608.72;;;3.49;100.00
56604;BME280;42486;47.478;19.036;2024-01-30T09:37:05;102602.66;;;3.55;100.00
56604;BME280;42486;47.478;19.036;2024-01-30T09:40:12;102617.31;;;3.49;100.00
56604;BME280;42486;47.478;19.036;2024-01-30T09:43:16;102603.50;;;3.55;100.00
56604;BME280;42486;47.478;19.036;2024-01-30T09:46:26;102612.78;;;3.79;100.00
56604;BME280;42486;47.478;19.036;2024-01-30T09:49:35;102603.28;;;3.80;100.00
56604;BME280;42486;47.478;19.036;2024-01-30T09:52:41;102605.59;;;4.10;100.00
56604;BME280;42486;47.478;19.036;2024-01-30T09:55:45;102600.34;;;4.16;100.00
56604;BME280;42486;47.478;19.036;2024-01-30T09:58:50;102604.62;;;4.19;100.00
56604;BME280;42486;47.478;19.036;2024-01-30T10:01:53;102607.31;;;4.08;100.00
56604;BME280;42486;47.478;19.036;2024-01-30T10:05:09;102607.44;;;3.97;100.00
56604;BME280;42486;47.478;19.036;2024-01-30T10:08:13;102608.31;;;3.95;100.00
56604;BME280;42486;47.478;19.036;2024-01-30T10:11:21;102609.22;;;3.92;100.00
56604;BME280;42486;47.478;19.036;2024-01-30T10:14:26;102612.44;;;4.16;100.00
56604;BME280;42486;47.478;19.036;2024-01-30T10:17:32;102611.59;;;4.14;100.00
56604;BME280;42486;47.478;19.036;2024-01-30T10:20:39;102602.78;;;4.30;100.00
56604;BME280;42486;47.478;19.036;2024-01-30T10:23:43;102604.62;;;4.17;100.00
56604;BME280;42486;47.478;19.036;2024-01-30T10:26:47;102601.84;;;4.37;100.00
56604;BME280;42486;47.478;19.036;2024-01-30T10:29:55;102601.12;;;4.94;100.00
56604;BME280;42486;47.478;19.036;2024-01-30T10:32:59;102588.47;;;5.32;100.00
56604;BME280;42486;47.478;19.036;2024-01-30T10:36:05;102596.69;;;5.60;100.00
56604;BME280;42486;47.478;19.036;2024-01-30T10:39:10;102595.78;;;5.64;100.00
56604;BME280;42486;47.478;19.036;2024-01-30T10:42:17;102593.91;;;5.70;100.00
56604;BME280;42486;47.478;19.036;2024-01-30T10:45:21;102580.94;;;5.70;100.00
56604;BME280;42486;47.478;19.036;2024-01-30T10:48:30;102584.69;;;5.52;98.56
56604;BME280;42486;47.478;19.036;2024-01-30T10:51:41;102581.34;;;4.89;100.00
56604;BME280;42486;47.478;19.036;2024-01-30T10:54:45;102566.84;;;4.75;100.00
56604;BME280;42486;47.478;19.036;2024-01-30T10:57:51;102565.59;;;5.02;100.00
56604;BME280;42486;47.478;19.036;2024-01-30T11:01:03;102560.97;;;5.23;100.00
56604;BME280;42486;47.478;19.036;2024-01-30T11:04:08;102555.31;;;5.52;100.00
56604;BME280;42486;47.478;19.036;2024-01-30T11:07:16;102548.37;;;5.54;98.85
56604;BME280;42486;47.478;19.036;2024-01-30T11:10:21;102553.62;;;5.51;100.00
56604;BME280;42486;47.478;19.036;2024-01-30T11:13:31;102551.00;;;5.52;100.00
56604;BME280;42486;47.478;19.036;2024-01-30T11:16:42;102546.59;;;5.58;99.73
56604;BME280;42486;47.478;19.036;2024-01-30T11:19:48;102543.84;;;5.65;99.27
56604;BME280;42486;47.478;19.036;2024-01-30T11:22:56;102537.56;;;5.79;98.65
56604;BME280;42486;47.478;19.036;2024-01-30T11:26:00;102535.81;;;5.81;96.53
56604;BME280;42486;47.478;19.036;2024-01-30T11:29:04;102529.19;;;5.64;96.46
56604;BME280;42486;47.478;19.036;2024-01-30T11:32:21;102535.34;;;5.59;96.59
56604;BME280;42486;47.478;19.036;2024-01-30T11:35:33;102530.19;;;5.57;96.90
56604;BME280;42486;47.478;19.036;2024-01-30T11:38:36;102531.87;;;5.58;95.43
56604;BME280;42486;47.478;19.036;2024-01-30T11:41:39;102534.56;;;5.54;95.40
56604;BME280;42486;47.478;19.036;2024-01-30T11:44:46;102536.84;;;5.72;96.24
56604;BME280;42486;47.478;19.036;2024-01-30T11:47:51;102530.56;;;5.82;94.14
56604;BME280;42486;47.478;19.036;2024-01-30T11:50:55;102526.31;;;5.80;94.90
56604;BME280;42486;47.478;19.036;2024-01-30T11:54:00;102515.91;;;5.83;94.25
56604;BME280;42486;47.478;19.036;2024-01-30T11:57:09;102517.59;;;5.82;96.55
56604;BME280;42486;47.478;19.036;2024-01-30T12:00:14;102515.13;;;5.76;93.99
56604;BME280;42486;47.478;19.036;2024-01-30T12:03:19;102508.34;;;5.70;94.82
56604;BME280;42486;47.478;19.036;2024-01-30T12:06:23;102505.53;;;5.83;93.57
56604;BME280;42486;47.478;19.036;2024-01-30T12:09:27;102490.94;;;5.77;93.90
56604;BME280;42486;47.478;19.036;2024-01-30T12:12:30;102496.00;;;5.83;94.39
56604;BME280;42486;47.478;19.036;2024-01-30T12:15:33;102487.37;;;5.81;92.23
56604;BME280;42486;47.478;19.036;2024-01-30T12:18:36;102488.63;;;5.60;93.14
56604;BME280;42486;47.478;19.036;2024-01-30T12:21:41;102479.38;;;5.47;91.84
56604;BME280;42486;47.478;19.036;2024-01-30T12:24:44;102478.63;;;5.40;93.37
56604;BME280;42486;47.478;19.036;2024-01-30T12:27:50;102477.59;;;5.49;90.87
56604;BME280;42486;47.478;19.036;2024-01-30T12:31:01;102471.53;;;5.50;90.53
56604;BME280;42486;47.478;19.036;2024-01-30T12:34:07;102477.59;;;5.50;90.48
56604;BME280;42486;47.478;19.036;2024-01-30T12:37:15;102473.31;;;5.48;89.61
56604;BME280;42486;47.478;19.036;2024-01-30T12:40:26;102473.53;;;5.36;91.13
56604;BME280;42486;47.478;19.036;2024-01-30T12:43:39;102465.09;;;5.24;89.22
56604;BME280;42486;47.478;19.036;2024-01-30T12:46:46;102463.16;;;5.37;89.15
56604;BME280;42486;47.478;19.036;2024-01-30T12:49:50;102464.66;;;5.47;87.03
56604;BME280;42486;47.478;19.036;2024-01-30T12:52:56;102465.28;;;5.60;85.90
56604;BME280;42486;47.478;19.036;2024-01-30T12:56:02;102462.69;;;5.60;85.61
56604;BME280;42486;47.478;19.036;2024-01-30T12:59:09;102456.09;;;5.42;83.44
56604;BME280;42486;47.478;19.036;2024-01-30T13:02:23;102457.78;;;5.46;83.97
56604;BME280;42486;47.478;19.036;2024-01-30T13:05:29;102445.47;;;5.58;83.80
56604;BME280;42486;47.478;19.036;2024-01-30T13:12:10;102441.31;;;5.50;83.89
56604;BME280;42486;47.478;19.036;2024-01-30T13:15:17;102431.72;;;5.54;82.48
56604;BME280;42486;47.478;19.036;2024-01-30T13:18:24;102435.22;;;5.51;82.81
56604;BME280;42486;47.478;19.036;2024-01-30T13:21:29;102435.88;;;5.63;81.34
56604;BME280;42486;47.478;19.036;2024-01-30T13:24:31;102435.62;;;5.75;81.09
56604;BME280;42486;47.478;19.036;2024-01-30T13:27:37;102432.94;;;5.80;80.61
56604;BME280;42486;47.478;19.036;2024-01-30T13:30:41;102423.66;;;5.69;78.37
56604;BME280;42486;47.478;19.036;2024-01-30T13:33:45;102437.41;;;5.73;79.55
56604;BME280;42486;47.478;19.036;2024-01-30T13:36:48;102437.47;;;5.70;80.34
56604;BME280;42486;47.478;19.036;2024-01-30T13:39:54;102435.94;;;5.58;80.78
56604;BME280;42486;47.478;19.036;2024-01-30T13:42:59;102433.41;;;5.57;81.62
56604;BME280;42486;47.478;19.036;2024-01-30T13:46:04;102435.78;;;5.67;81.23
56604;BME280;42486;47.478;19.036;2024-01-30T13:49:07;102436.63;;;5.68;80.75
56604;BME280;42486;47.478;19.036;2024-01-30T13:52:10;102433.25;;;5.64;80.34
56604;BME280;42486;47.478;19.036;2024-01-30T13:55:17;102428.84;;;5.69;79.46
56604;BME280;42486;47.478;19.036;2024-01-30T13:58:20;102427.09;;;5.68;78.15
56604;BME280;42486;47.478;19.036;2024-01-30T14:01:24;102427.09;;;5.68;79.21
56604;BME280;42486;47.478;19.036;2024-01-30T14:04:27;102428.06;;;5.64;77.92
56604;BME280;42486;47.478;19.036;2024-01-30T14:07:30;102423.03;;;5.57;78.34
56604;BME280;42486;47.478;19.036;2024-01-30T14:10:33;102423.19;;;5.47;77.38
56604;BME280;42486;47.478;19.036;2024-01-30T14:13:39;102420.69;;;5.43;77.80
56604;BME280;42486;47.478;19.036;2024-01-30T14:16:42;102414.75;;;5.36;75.52
56604;BME280;42486;47.478;19.036;2024-01-30T14:19:46;102421.75;;;5.33;77.91
56604;BME280;42486;47.478;19.036;2024-01-30T14:22:52;102422.59;;;5.33;78.17
56604;BME280;42486;47.478;19.036;2024-01-30T14:26:02;102416.63;;;5.29;77.19
56604;BME280;42486;47.478;19.036;2024-01-30T14:29:09;102414.94;;;5.27;77.13
56604;BME280;42486;47.478;19.036;2024-01-30T14:32:12;102414.88;;;5.30;78.98
56604;BME280;42486;47.478;19.036;2024-01-30T14:35:17;102424.50;;;5.23;77.46
56604;BME280;42486;47.478;19.036;2024-01-30T14:38:21;102418.56;;;5.17;76.89
56604;BME280;42486;47.478;19.036;2024-01-30T14:41:24;102423.00;;;5.10;76.11
56604;BME280;42486;47.478;19.036;2024-01-30T14:44:29;102415.41;;;4.99;76.67
56604;BME280;42486;47.478;19.036;2024-01-30T14:47:34;102418.88;;;4.98;76.91
56604;BME280;42486;47.478;19.036;2024-01-30T14:50:39;102409.56;;;4.88;78.95
56604;BME280;42486;47.478;19.036;2024-01-30T14:53:43;102414.84;;;4.82;80.48
56604;BME280;42486;47.478;19.036;2024-01-30T14:56:47;102409.81;;;4.73;81.46
56604;BME280;42486;47.478;19.036;2024-01-30T14:59:50;102408.16;;;4.69;81.36
56604;BME280;42486;47.478;19.036;2024-01-30T15:02:56;102407.16;;;4.76;82.26
56604;BME280;42486;47.478;19.036;2024-01-30T15:06:01;102412.56;;;4.63;82.06
56604;BME280;42486;47.478;19.036;2024-01-30T15:09:05;102406.19;;;4.84;85.56
56604;BME280;42486;47.478;19.036;2024-01-30T15:12:09;102400.03;;;4.90;83.76
56604;BME280;42486;47.478;19.036;2024-01-30T15:15:17;102401.06;;;4.81;85.30
56604;BME280;42486;47.478;19.036;2024-01-30T15:18:29;102409.06;;;4.64;86.93
56604;BME280;42486;47.478;19.036;2024-01-30T15:21:37;102402.25;;;4.59;90.45
56604;BME280;42486;47.478;19.036;2024-01-30T15:24:44;102394.91;;;4.87;92.59
56604;BME280;42486;47.478;19.036;2024-01-30T15:27:47;102405.09;;;4.98;90.10
56604;BME280;42486;47.478;19.036;2024-01-30T15:30:57;102397.25;;;5.01;91.87
56604;BME280;42486;47.478;19.036;2024-01-30T15:34:02;102398.53;;;4.77;89.61
56604;BME280;42486;47.478;19.036;2024-01-30T15:37:06;102398.66;;;4.68;92.96
56604;BME280;42486;47.478;19.036;2024-01-30T15:40:11;102394.72;;;4.45;89.37
56604;BME280;42486;47.478;19.036;2024-01-30T15:43:14;102398.66;;;4.10;88.76
56604;BME280;42486;47.478;19.036;2024-01-30T15:46:20;102401.62;;;3.81;89.94
56604;BME280;42486;47.478;19.036;2024-01-30T15:49:25;102401.03;;;3.56;91.79
56604;BME280;42486;47.478;19.036;2024-01-30T15:52:28;102396.09;;;3.36;92.79
56604;BME280;42486;47.478;19.036;2024-01-30T15:55:32;102390.25;;;3.22;94.04